Sophie Blue — CRXK3 — position and weather

sailwx.info

Track history (hours):
 
Tides and Currents Weather Stations Pressure Air Temp Water Temp Dewpoint Dewpoint Depression Visibility Wind Speed Wind Dir Waves Ship Positions

Sophie Blue

Last reported at 2014-Aug-28 14:33 UTC. Time now 2014-Aug-28 15:28 UTC.
Position N 43°42' E 007°20'.

; draft 2.7 m.

Type: Other ship. MMSI: 255901270.

Date/timePositionNaut miles runAvg speedWind from/ knotsBaromVisibWave heightAir tempDewpointWater temp
2014-Aug-28 14:33N 43°42' E 007°20'0 0.0
2014-Aug-28 13:33N 43°42' E 007°20'0 0.0
2014-Aug-28 12:33N 43°42' E 007°20'5 4.6
2014-Aug-28 11:32N 43°44' E 007°26'1 0.6
2014-Aug-28 10:29N 43°45' E 007°27'0 0.0
2014-Aug-28 08:25N 43°45' E 007°27'1 1.3
2014-Aug-28 07:28N 43°43' E 007°26'4 3.9
2014-Aug-28 06:32N 43°43' E 007°21'0 0.0
2014-Aug-28 05:33N 43°43' E 007°21'0 0.0
2014-Aug-28 04:33N 43°43' E 007°21'0 0.0
2014-Aug-28 03:33N 43°43' E 007°21'0 0.0
2014-Aug-28 02:33N 43°43' E 007°21'0 0.0
2014-Aug-28 01:33N 43°43' E 007°21'0 0.0
2014-Aug-28 00:33N 43°43' E 007°21'0 0.0
2014-Aug-27 23:34N 43°43' E 007°21'0 0.0
2014-Aug-27 22:33N 43°43' E 007°21'0 0.0
2014-Aug-27 21:33N 43°43' E 007°21'0 0.0
2014-Aug-27 20:33N 43°43' E 007°21'0 0.0
2014-Aug-27 19:33N 43°43' E 007°21'0 0.0
2014-Aug-27 18:22N 43°43' E 007°21'0 0.0
2014-Aug-27 17:19N 43°43' E 007°21'0 0.0
2014-Aug-27 16:23N 43°43' E 007°21'0 0.0
2014-Aug-27 15:31N 43°43' E 007°21'0 0.0
2014-Aug-27 14:32N 43°43' E 007°21'3 3.0
2014-Aug-27 13:31N 43°40' E 007°21'1212.3
2014-Aug-27 12:33N 43°30' E 007°11'1312.6
2014-Aug-27 11:34N 43°21' E 006°59'1912.7
2014-Aug-27 10:04N 43°09' E 006°39'12 0.3
2014-Aug-25 13:33N 43°06' E 006°23'3 3.2
2014-Aug-25 12:34N 43°06' E 006°19'0 0.0
2014-Aug-25 11:33N 43°06' E 006°19'0 0.0
2014-Aug-25 10:33N 43°06' E 006°19'3 0.3
2014-Aug-24 22:28N 43°08' E 006°22'0 0.0
2014-Aug-24 10:15N 43°08' E 006°22'0 0.0
2014-Aug-24 07:18N 43°08' E 006°22'0 0.0
2014-Aug-24 04:11N 43°08' E 006°22'0 0.0
2014-Aug-22 09:30N 43°08' E 006°22'0 0.0
2014-Aug-21 21:17N 43°08' E 006°22'0 0.0
2014-Aug-21 20:30N 43°08' E 006°22'0 0.0
2014-Aug-21 19:34N 43°08' E 006°22'0 0.0
2014-Aug-21 18:22N 43°08' E 006°22'0 0.0
2014-Aug-21 07:11N 43°08' E 006°22'0 0.0
2014-Aug-21 06:22N 43°08' E 006°22'2 0.1
2014-Aug-20 11:07N 43°07' E 006°24'4 7.5
2014-Aug-20 10:33N 43°05' E 006°20'2 0.1
2014-Aug-19 16:33N 43°06' E 006°23'8 8.0
2014-Aug-19 15:33N 43°01' E 006°14'0 0.0
2014-Aug-19 14:33N 43°01' E 006°14'0 0.0
2014-Aug-19 13:34N 43°01' E 006°14'0 0.0
2014-Aug-19 12:33N 43°01' E 006°14'1 0.5
2014-Aug-19 11:33N 43°01' E 006°14'7 7.0
2014-Aug-19 10:33N 43°05' E 006°23'  
Track history (hours):
 
Tides and Currents Weather Stations Pressure Air Temp Water Temp Dewpoint Dewpoint Depression Visibility Wind Speed Wind Dir Waves Ship Positions

Sophie Blue

Last reported at 2014-Aug-28 14:33 UTC. Time now 2014-Aug-28 15:28 UTC.
Position N 43°42' E 007°20'.

; draft 2.7 m.

Type: Other ship. MMSI: 255901270.

Date/timePositionNaut miles runAvg speedWind from/ knotsBaromVisibWave heightAir tempDewpointWater temp
2014-Aug-28 14:33N 43°42' E 007°20'0 0.0
2014-Aug-28 13:33N 43°42' E 007°20'0 0.0
2014-Aug-28 12:33N 43°42' E 007°20'5 4.6
2014-Aug-28 11:32N 43°44' E 007°26'1 0.6
2014-Aug-28 10:29N 43°45' E 007°27'0 0.0
2014-Aug-28 08:25N 43°45' E 007°27'1 1.3
2014-Aug-28 07:28N 43°43' E 007°26'4 3.9
2014-Aug-28 06:32N 43°43' E 007°21'0 0.0
2014-Aug-28 05:33N 43°43' E 007°21'0 0.0
2014-Aug-28 04:33N 43°43' E 007°21'0 0.0
2014-Aug-28 03:33N 43°43' E 007°21'0 0.0
2014-Aug-28 02:33N 43°43' E 007°21'0 0.0
2014-Aug-28 01:33N 43°43' E 007°21'0 0.0
2014-Aug-28 00:33N 43°43' E 007°21'0 0.0
2014-Aug-27 23:34N 43°43' E 007°21'0 0.0
2014-Aug-27 22:33N 43°43' E 007°21'0 0.0
2014-Aug-27 21:33N 43°43' E 007°21'0 0.0
2014-Aug-27 20:33N 43°43' E 007°21'0 0.0
2014-Aug-27 19:33N 43°43' E 007°21'0 0.0
2014-Aug-27 18:22N 43°43' E 007°21'0 0.0
2014-Aug-27 17:19N 43°43' E 007°21'0 0.0
2014-Aug-27 16:23N 43°43' E 007°21'0 0.0
2014-Aug-27 15:31N 43°43' E 007°21'0 0.0
2014-Aug-27 14:32N 43°43' E 007°21'3 3.0
2014-Aug-27 13:31N 43°40' E 007°21'1212.3
2014-Aug-27 12:33N 43°30' E 007°11'1312.6
2014-Aug-27 11:34N 43°21' E 006°59'1912.7
2014-Aug-27 10:04N 43°09' E 006°39'12 0.3
2014-Aug-25 13:33N 43°06' E 006°23'3 3.2
2014-Aug-25 12:34N 43°06' E 006°19'0 0.0
2014-Aug-25 11:33N 43°06' E 006°19'0 0.0
2014-Aug-25 10:33N 43°06' E 006°19'3 0.3
2014-Aug-24 22:28N 43°08' E 006°22'0 0.0
2014-Aug-24 10:15N 43°08' E 006°22'0 0.0
2014-Aug-24 07:18N 43°08' E 006°22'0 0.0
2014-Aug-24 04:11N 43°08' E 006°22'0 0.0
2014-Aug-22 09:30N 43°08' E 006°22'0 0.0
2014-Aug-21 21:17N 43°08' E 006°22'0 0.0
2014-Aug-21 20:30N 43°08' E 006°22'0 0.0
2014-Aug-21 19:34N 43°08' E 006°22'0 0.0
2014-Aug-21 18:22N 43°08' E 006°22'0 0.0
2014-Aug-21 07:11N 43°08' E 006°22'0 0.0
2014-Aug-21 06:22N 43°08' E 006°22'2 0.1
2014-Aug-20 11:07N 43°07' E 006°24'4 7.5
2014-Aug-20 10:33N 43°05' E 006°20'2 0.1
2014-Aug-19 16:33N 43°06' E 006°23'8 8.0
2014-Aug-19 15:33N 43°01' E 006°14'0 0.0
2014-Aug-19 14:33N 43°01' E 006°14'0 0.0
2014-Aug-19 13:34N 43°01' E 006°14'0 0.0
2014-Aug-19 12:33N 43°01' E 006°14'1 0.5
2014-Aug-19 11:33N 43°01' E 006°14'7 7.0
2014-Aug-19 10:33N 43°05' E 006°23'  

Dump ship's entire track history